createdAt,value
2017-05-22T00:00:49.898Z,97.66
2017-05-22T00:01:50.507Z,97.17
2017-05-22T00:02:51.116Z,97.37
2017-05-22T00:03:51.718Z,97.46
2017-05-22T00:04:52.332Z,97.66
2017-05-22T00:05:52.944Z,98.32
2017-05-22T00:06:53.560Z,98.32
2017-05-22T00:07:54.220Z,98.22
2017-05-22T00:08:54.822Z,98.80
2017-05-22T00:09:55.426Z,99.18
2017-05-22T00:10:56.038Z,99.18
2017-05-22T00:11:56.636Z,99.37
2017-05-22T00:12:57.250Z,99.37
2017-05-22T00:13:57.861Z,98.80
2017-05-22T00:14:58.469Z,99.08
2017-05-22T00:15:59.082Z,98.46
2017-05-22T00:16:59.688Z,98.46
2017-05-22T00:18:00.289Z,98.46
2017-05-22T00:19:00.891Z,98.46
2017-05-22T00:20:01.493Z,97.80
2017-05-22T00:21:02.090Z,97.70
2017-05-22T00:22:02.696Z,98.08
2017-05-22T00:23:03.299Z,98.65
2017-05-22T00:24:03.910Z,98.46
2017-05-22T00:25:04.514Z,98.46
2017-05-22T00:26:05.175Z,98.56
2017-05-22T00:27:05.779Z,98.08
2017-05-22T00:28:06.377Z,98.27
2017-05-22T00:29:06.981Z,98.27
2017-05-22T00:30:07.581Z,98.18
2017-05-22T00:31:08.177Z,98.46
2017-05-22T00:32:08.804Z,98.56
2017-05-22T00:33:09.443Z,98.27
2017-05-22T00:34:10.067Z,99.41
2017-05-22T00:35:10.685Z,99.41
2017-05-22T00:36:11.289Z,99.99
2017-05-22T00:37:11.892Z,99.99
2017-05-22T00:38:12.505Z,99.99
2017-05-22T00:39:13.117Z,99.99
2017-05-22T00:40:13.712Z,99.99
2017-05-22T00:41:14.321Z,99.99
2017-05-22T00:42:14.927Z,99.99
2017-05-22T00:43:15.537Z,99.99
2017-05-22T00:44:16.140Z,99.99
2017-05-22T00:45:16.754Z,99.99
2017-05-22T00:46:17.375Z,99.99
2017-05-22T00:47:17.973Z,99.99
2017-05-22T00:48:18.570Z,99.99
2017-05-22T00:49:19.175Z,99.99
2017-05-22T00:50:19.788Z,99.99
2017-05-22T00:51:20.410Z,99.99
2017-05-22T00:52:21.029Z,99.99
2017-05-22T00:53:21.625Z,99.99
2017-05-22T00:54:22.233Z,99.99
2017-05-22T00:55:22.854Z,99.99
2017-05-22T00:56:23.470Z,99.99
2017-05-22T00:57:24.088Z,99.99
2017-05-22T00:58:24.751Z,99.99
2017-05-22T00:59:25.355Z,99.99
2017-05-22T01:00:25.973Z,99.99
2017-05-22T01:01:26.579Z,99.99
2017-05-22T01:02:27.177Z,99.99
2017-05-22T01:03:27.789Z,99.99
2017-05-22T01:04:28.407Z,99.99
2017-05-22T01:05:29.019Z,99.99
2017-05-22T01:06:29.663Z,99.99
2017-05-22T01:07:30.252Z,99.99
2017-05-22T01:08:30.868Z,99.99
2017-05-22T01:09:31.470Z,99.99
2017-05-22T01:10:32.067Z,99.99
2017-05-22T01:11:32.667Z,99.99
2017-05-22T01:12:33.292Z,99.99
2017-05-22T01:13:33.870Z,99.99
2017-05-22T01:14:34.483Z,99.99
2017-05-22T01:15:35.100Z,99.99
2017-05-22T01:16:35.713Z,99.99
2017-05-22T01:17:36.332Z,99.99
2017-05-22T01:18:36.926Z,99.99
2017-05-22T01:19:37.525Z,99.99
2017-05-22T01:20:38.120Z,99.99
2017-05-22T01:21:38.730Z,99.99
2017-05-22T01:22:39.345Z,99.99
2017-05-22T01:23:39.951Z,99.99
2017-05-22T01:24:40.560Z,99.99
2017-05-22T01:25:41.171Z,99.99
2017-05-22T01:26:41.776Z,99.99
2017-05-22T01:27:42.395Z,99.99
2017-05-22T01:28:43.020Z,99.99
2017-05-22T01:29:43.638Z,99.99
2017-05-22T01:30:44.232Z,99.99
2017-05-22T01:31:44.834Z,99.99
2017-05-22T01:32:45.453Z,99.99
2017-05-22T01:33:46.055Z,99.99
2017-05-22T01:34:46.674Z,99.99
2017-05-22T01:35:47.273Z,99.99
2017-05-22T01:36:47.872Z,99.99
2017-05-22T01:37:48.488Z,99.99
2017-05-22T01:38:49.099Z,99.99
2017-05-22T01:39:49.700Z,99.99
2017-05-22T01:40:50.298Z,99.99
2017-05-22T01:41:50.908Z,99.99
2017-05-22T01:42:51.506Z,99.99
2017-05-22T01:43:52.109Z,99.99
2017-05-22T01:44:52.714Z,99.99
2017-05-22T01:45:53.327Z,99.99
2017-05-22T01:46:53.944Z,99.99
2017-05-22T01:47:54.563Z,99.99
2017-05-22T01:48:55.157Z,99.99
2017-05-22T01:49:55.773Z,99.99
2017-05-22T01:50:56.393Z,99.99
2017-05-22T01:51:56.991Z,99.99
2017-05-22T01:52:57.612Z,99.99
2017-05-22T01:53:58.228Z,99.99
2017-05-22T01:54:58.843Z,99.99
2017-05-22T01:55:59.442Z,99.99
2017-05-22T01:57:00.064Z,99.99
2017-05-22T01:58:00.672Z,99.99
2017-05-22T01:59:01.270Z,99.99
2017-05-22T02:00:01.866Z,99.99
2017-05-22T02:01:02.479Z,99.99
2017-05-22T02:02:03.098Z,99.99
2017-05-22T02:03:03.714Z,99.99
2017-05-22T02:04:04.317Z,99.99
2017-05-22T02:05:04.924Z,99.99
2017-05-22T02:06:05.527Z,99.99
2017-05-22T02:07:06.145Z,99.99
2017-05-22T02:08:06.761Z,99.99
2017-05-22T02:09:07.368Z,99.99
2017-05-22T02:10:07.978Z,99.99
2017-05-22T02:11:08.579Z,99.99
2017-05-22T02:12:09.178Z,99.99
2017-05-22T02:13:09.791Z,99.99
2017-05-22T02:14:10.401Z,99.99
2017-05-22T02:15:11.003Z,99.99
2017-05-22T02:16:11.614Z,99.99
2017-05-22T02:17:12.230Z,99.99
2017-05-22T02:18:12.823Z,99.99
2017-05-22T02:19:13.430Z,99.99
2017-05-22T02:20:14.035Z,99.99
2017-05-22T02:21:14.634Z,99.99
2017-05-22T02:22:15.231Z,99.99
2017-05-22T02:23:15.823Z,99.99
2017-05-22T02:24:16.441Z,99.99
2017-05-22T02:25:17.035Z,99.99
2017-05-22T02:26:17.646Z,99.99
2017-05-22T02:27:18.269Z,99.99
2017-05-22T02:28:18.883Z,99.99
2017-05-22T02:29:19.506Z,99.99
2017-05-22T02:30:20.099Z,99.99
2017-05-22T02:31:20.691Z,99.99
2017-05-22T02:32:21.297Z,99.99
2017-05-22T02:33:21.904Z,99.99
2017-05-22T02:34:22.508Z,99.99
2017-05-22T02:35:23.105Z,99.99
2017-05-22T02:36:23.723Z,99.99
2017-05-22T02:37:24.337Z,99.99
2017-05-22T02:38:24.930Z,99.99
2017-05-22T02:39:25.538Z,99.99
2017-05-22T02:40:26.142Z,99.99
2017-05-22T02:41:26.744Z,99.99
2017-05-22T02:42:27.363Z,99.99
2017-05-22T02:43:27.973Z,99.99
2017-05-22T02:44:28.583Z,99.99
2017-05-22T02:45:29.195Z,99.99
2017-05-22T02:46:29.792Z,99.99
2017-05-22T02:47:30.386Z,99.99
2017-05-22T02:48:30.996Z,99.99
2017-05-22T02:49:31.595Z,99.99
2017-05-22T02:50:32.190Z,99.99
2017-05-22T02:51:32.800Z,99.99
2017-05-22T02:52:33.418Z,99.99
2017-05-22T02:53:34.018Z,99.99
2017-05-22T02:54:34.634Z,99.99
2017-05-22T02:55:35.246Z,99.99
2017-05-22T02:56:35.848Z,99.99
2017-05-22T02:57:36.448Z,99.99
2017-05-22T02:58:37.056Z,99.99
2017-05-22T02:59:37.657Z,99.99
2017-05-22T03:00:38.255Z,99.99
2017-05-22T03:01:38.858Z,99.99
2017-05-22T03:02:39.459Z,99.99
2017-05-22T03:03:40.060Z,99.99
2017-05-22T03:04:40.649Z,99.99
2017-05-22T03:05:41.250Z,99.99
2017-05-22T03:06:41.869Z,99.99
2017-05-22T03:07:42.488Z,99.99
2017-05-22T03:08:43.099Z,99.99
2017-05-22T03:09:43.693Z,99.99
2017-05-22T03:10:44.301Z,99.99
2017-05-22T03:11:44.900Z,99.99
2017-05-22T03:12:45.495Z,99.99
2017-05-22T03:13:46.098Z,99.99
2017-05-22T03:14:46.731Z,99.99
2017-05-22T03:15:47.333Z,99.99
2017-05-22T03:16:47.948Z,99.99
2017-05-22T03:17:48.543Z,99.99
2017-05-22T03:18:49.149Z,99.99
2017-05-22T03:19:49.818Z,99.99
2017-05-22T03:20:50.411Z,99.99
2017-05-22T03:21:51.014Z,99.99
2017-05-22T03:22:51.632Z,99.99
2017-05-22T03:23:52.248Z,99.99
2017-05-22T03:24:52.887Z,99.99
2017-05-22T03:25:53.466Z,99.99
2017-05-22T03:26:54.063Z,99.99
2017-05-22T03:27:54.659Z,99.99
2017-05-22T03:28:55.272Z,99.99
2017-05-22T03:29:55.868Z,99.99
2017-05-22T03:30:56.476Z,99.99
2017-05-22T03:31:57.075Z,99.99
2017-05-22T03:32:57.693Z,99.99
2017-05-22T03:33:58.308Z,99.99
2017-05-22T03:34:58.915Z,99.99
2017-05-22T03:35:59.521Z,99.99
2017-05-22T03:37:00.136Z,99.99
2017-05-22T03:38:00.756Z,99.99
2017-05-22T03:39:01.354Z,99.99
2017-05-22T03:40:01.966Z,99.99
2017-05-22T03:41:02.565Z,99.99
2017-05-22T03:42:03.172Z,99.99
2017-05-22T03:43:03.770Z,99.99
2017-05-22T03:44:04.389Z,99.99
2017-05-22T03:45:05.000Z,99.99
2017-05-22T03:46:05.603Z,99.99
2017-05-22T03:47:06.222Z,99.99
2017-05-22T03:48:06.839Z,99.99
2017-05-22T03:49:07.444Z,99.99
2017-05-22T03:50:08.046Z,99.99
2017-05-22T03:51:08.643Z,99.99
2017-05-22T03:52:09.250Z,99.99
2017-05-22T03:53:09.848Z,99.99
2017-05-22T03:54:10.469Z,99.99
2017-05-22T03:55:11.077Z,99.99
2017-05-22T03:56:11.695Z,99.99
2017-05-22T03:57:12.317Z,99.99
2017-05-22T03:58:12.938Z,99.99
2017-05-22T03:59:13.535Z,99.99
2017-05-22T04:00:14.139Z,99.99
2017-05-22T04:01:14.752Z,99.99
2017-05-22T04:02:15.365Z,99.99
2017-05-22T04:03:15.973Z,99.99
2017-05-22T04:04:16.576Z,99.99
2017-05-22T04:05:17.185Z,99.99
2017-05-22T04:06:17.790Z,99.99
2017-05-22T04:07:18.410Z,99.99
2017-05-22T04:08:19.008Z,99.99
2017-05-22T04:09:19.615Z,99.99
2017-05-22T04:10:20.230Z,99.99
2017-05-22T04:11:20.834Z,99.99
2017-05-22T04:12:21.457Z,99.99
2017-05-22T04:13:22.076Z,99.99
2017-05-22T04:14:22.689Z,99.99
2017-05-22T04:15:23.290Z,99.99
2017-05-22T04:16:23.893Z,99.99
2017-05-22T04:17:24.492Z,99.99
2017-05-22T04:18:25.101Z,99.99
2017-05-22T04:19:25.704Z,99.99
2017-05-22T04:20:26.310Z,99.99
2017-05-22T04:21:26.926Z,99.99
2017-05-22T04:22:27.533Z,99.99
2017-05-22T04:23:28.142Z,99.99
2017-05-22T04:24:28.757Z,99.99
2017-05-22T04:25:29.355Z,99.99
2017-05-22T04:26:29.957Z,99.99
2017-05-22T04:27:30.565Z,99.99
2017-05-22T04:28:31.170Z,99.99
2017-05-22T04:29:31.775Z,99.99
2017-05-22T04:30:32.400Z,99.99
2017-05-22T04:31:33.019Z,99.99
2017-05-22T04:32:33.639Z,99.99
2017-05-22T04:33:34.257Z,99.99
2017-05-22T04:34:34.867Z,99.99
2017-05-22T04:35:35.485Z,99.99
2017-05-22T04:36:36.102Z,99.99
2017-05-22T04:37:36.723Z,99.99
2017-05-22T04:38:37.343Z,99.99
2017-05-22T04:39:37.962Z,99.99
2017-05-22T04:40:38.576Z,99.99
2017-05-22T04:41:39.244Z,99.99
2017-05-22T04:42:39.867Z,99.99
2017-05-22T04:43:40.492Z,99.99
2017-05-22T04:44:41.110Z,99.99
2017-05-22T04:45:41.726Z,99.28
2017-05-22T04:46:42.336Z,96.89
2017-05-22T04:47:42.949Z,92.88
2017-05-22T04:48:43.560Z,90.77
2017-05-22T04:49:44.192Z,89.48
2017-05-22T04:50:44.802Z,90.73
2017-05-22T04:51:45.428Z,90.82
2017-05-22T04:52:46.051Z,90.62
2017-05-22T04:53:46.656Z,88.09
2017-05-22T04:54:47.278Z,86.41
2017-05-22T04:55:47.887Z,84.91
2017-05-22T04:56:48.504Z,83.42
2017-05-22T04:57:49.121Z,81.93
2017-05-22T04:58:49.751Z,80.15
2017-05-22T04:59:50.365Z,78.17
2017-05-22T05:00:50.988Z,76.82
2017-05-22T05:01:51.600Z,76.19
2017-05-22T05:02:52.225Z,74.11
2017-05-22T05:03:52.849Z,73.15
2017-05-22T05:04:53.467Z,72.25
2017-05-22T05:05:54.079Z,72.73
2017-05-22T05:06:54.691Z,72.34
2017-05-22T05:07:55.312Z,72.34
2017-05-22T05:08:55.934Z,72.54
2017-05-22T05:09:56.549Z,73.50
2017-05-22T05:10:57.169Z,72.58
2017-05-22T05:11:57.804Z,71.04
2017-05-22T05:12:58.460Z,69.98
2017-05-22T05:13:59.054Z,70.62
2017-05-22T05:14:59.679Z,71.71
2017-05-22T05:16:00.314Z,71.14
2017-05-22T05:17:00.929Z,70.81
2017-05-22T05:18:01.552Z,70.04
2017-05-22T05:19:02.181Z,70.84
2017-05-22T05:20:02.801Z,72.56
2017-05-22T05:21:03.429Z,73.20
2017-05-22T05:22:04.054Z,74.22
2017-05-22T05:23:04.682Z,74.79
2017-05-22T05:24:05.297Z,75.18
2017-05-22T05:25:05.909Z,74.51
2017-05-22T05:26:06.541Z,73.77
2017-05-22T05:27:07.175Z,73.20
2017-05-22T05:28:07.807Z,73.68
2017-05-22T05:29:08.432Z,72.75
2017-05-22T05:30:09.072Z,72.47
2017-05-22T05:31:09.700Z,72.53
2017-05-22T05:32:10.319Z,72.47
2017-05-22T05:33:10.932Z,72.33
2017-05-22T05:34:11.561Z,73.49
2017-05-22T05:35:12.197Z,75.46
2017-05-22T05:36:12.819Z,76.04
2017-05-22T05:37:13.449Z,76.62
2017-05-22T05:38:14.072Z,76.40
2017-05-22T05:39:14.691Z,75.87
2017-05-22T05:40:15.329Z,75.20
2017-05-22T05:41:16.003Z,74.17
2017-05-22T05:42:16.641Z,73.41
2017-05-22T05:43:17.281Z,72.92
2017-05-22T05:44:17.943Z,72.86
2017-05-22T05:45:18.554Z,72.00
2017-05-22T05:46:19.185Z,71.33
2017-05-22T05:47:19.824Z,70.65
2017-05-22T05:48:20.444Z,70.17
2017-05-22T05:49:21.084Z,70.11
2017-05-22T05:50:21.703Z,69.63
2017-05-22T05:51:22.328Z,69.09
2017-05-22T05:52:22.949Z,68.41
2017-05-22T05:53:23.575Z,68.22
2017-05-22T05:54:24.206Z,69.18
2017-05-22T05:55:24.836Z,68.32
2017-05-22T05:56:25.457Z,67.49
2017-05-22T05:57:26.073Z,66.39
2017-05-22T05:58:26.707Z,66.58
2017-05-22T05:59:27.337Z,67.45
2017-05-22T06:00:27.953Z,67.26
2017-05-22T06:01:28.587Z,67.26
2017-05-22T06:02:29.207Z,67.65
2017-05-22T06:03:29.874Z,67.65
2017-05-22T06:04:30.503Z,68.03
2017-05-22T06:05:31.129Z,68.70
2017-05-22T06:06:31.756Z,68.29
2017-05-22T06:07:32.390Z,68.54
2017-05-22T06:08:33.018Z,69.31
2017-05-22T06:09:33.635Z,69.47
2017-05-22T06:10:34.263Z,67.97
2017-05-22T06:11:34.879Z,67.49
2017-05-22T06:12:35.504Z,65.46
2017-05-22T06:13:36.139Z,65.75
2017-05-22T06:14:36.811Z,66.33
2017-05-22T06:15:37.450Z,65.50
2017-05-22T06:16:38.074Z,65.33
2017-05-22T06:17:38.705Z,65.69
2017-05-22T06:18:39.327Z,65.20
2017-05-22T06:19:40.000Z,64.82
2017-05-22T06:20:40.618Z,65.24
2017-05-22T06:21:41.244Z,64.76
2017-05-22T06:22:41.881Z,63.73
2017-05-22T06:23:42.526Z,63.34
2017-05-22T06:24:43.163Z,63.24
2017-05-22T06:25:43.793Z,63.54
2017-05-22T06:26:44.454Z,62.38
2017-05-22T06:27:45.179Z,62.86
2017-05-22T06:28:45.807Z,62.28
2017-05-22T06:29:46.446Z,62.66
2017-05-22T06:30:47.081Z,62.41
2017-05-22T06:31:47.712Z,62.48
2017-05-22T06:32:48.391Z,61.71
2017-05-22T06:33:49.009Z,62.09
2017-05-22T06:34:49.628Z,62.09
2017-05-22T06:35:50.270Z,61.38
2017-05-22T06:36:50.915Z,61.41
2017-05-22T06:37:51.557Z,61.29
2017-05-22T06:38:52.182Z,61.13
2017-05-22T06:39:52.814Z,61.19
2017-05-22T06:40:53.461Z,61.65
2017-05-22T06:41:54.097Z,62.83
2017-05-22T06:42:54.738Z,61.61
2017-05-22T06:43:55.377Z,60.32
2017-05-22T06:44:56.007Z,61.68
2017-05-22T06:45:56.641Z,61.54
2017-05-22T06:46:57.283Z,60.64
2017-05-22T06:47:57.918Z,60.35
2017-05-22T06:48:58.541Z,60.48
2017-05-22T06:49:59.166Z,60.77
2017-05-22T06:50:59.801Z,60.74
2017-05-22T06:52:00.437Z,60.80
2017-05-22T06:53:01.079Z,60.83
2017-05-22T06:54:01.720Z,61.32
2017-05-22T06:55:02.366Z,60.45
2017-05-22T06:56:03.008Z,61.22
2017-05-22T06:57:03.650Z,61.41
2017-05-22T06:58:04.268Z,61.25
2017-05-22T06:59:04.904Z,61.25
2017-05-22T07:00:05.558Z,60.48
2017-05-22T07:01:06.181Z,60.68
2017-05-22T07:02:06.822Z,60.93
2017-05-22T07:03:07.459Z,60.74
2017-05-22T07:04:08.084Z,61.06
2017-05-22T07:05:08.719Z,60.48
2017-05-22T07:06:09.410Z,60.19
2017-05-22T07:07:10.025Z,60.38
2017-05-22T07:08:10.659Z,61.38
2017-05-22T07:09:11.294Z,59.64
2017-05-22T07:10:11.929Z,59.28
2017-05-22T07:11:12.566Z,58.68
2017-05-22T07:12:13.198Z,60.03
2017-05-22T07:13:13.817Z,58.87
2017-05-22T07:14:14.435Z,59.16
2017-05-22T07:15:15.073Z,58.97
2017-05-22T07:16:15.752Z,59.83
2017-05-22T07:17:16.394Z,58.87
2017-05-22T07:18:17.030Z,59.06
2017-05-22T07:19:17.660Z,58.87
2017-05-22T07:20:18.294Z,58.87
2017-05-22T07:21:18.988Z,59.45
2017-05-22T07:22:19.627Z,59.35
2017-05-22T07:23:20.261Z,59.00
2017-05-22T07:24:20.892Z,58.42
2017-05-22T07:25:21.521Z,58.73
2017-05-22T07:26:22.149Z,57.87
2017-05-22T07:27:22.785Z,58.45
2017-05-22T07:28:23.421Z,57.57
2017-05-22T07:29:24.057Z,57.57
2017-05-22T07:30:24.693Z,57.87
2017-05-22T07:31:25.323Z,58.35
2017-05-22T07:32:25.948Z,57.96
2017-05-22T07:33:26.577Z,58.35
2017-05-22T07:34:27.207Z,58.37
2017-05-22T07:35:27.836Z,58.02
2017-05-22T07:36:28.661Z,58.02
2017-05-22T07:37:29.279Z,58.53
2017-05-22T07:38:29.910Z,57.66
2017-05-22T07:39:30.545Z,56.40
2017-05-22T07:40:31.180Z,56.02
2017-05-22T07:41:31.810Z,56.95
2017-05-22T07:42:32.433Z,56.35
2017-05-22T07:43:33.056Z,57.12
2017-05-22T07:44:33.678Z,57.48
2017-05-22T07:45:34.315Z,58.09
2017-05-22T07:46:34.943Z,57.60
2017-05-22T07:47:35.567Z,57.63
2017-05-22T07:48:36.203Z,56.73
2017-05-22T07:49:36.829Z,56.45
2017-05-22T07:50:37.470Z,56.90
2017-05-22T07:51:38.088Z,58.45
2017-05-22T07:52:38.722Z,58.86
2017-05-22T07:53:39.342Z,57.63
2017-05-22T07:54:39.961Z,57.56
2017-05-22T07:55:40.600Z,57.66
2017-05-22T07:56:41.234Z,56.47
2017-05-22T07:57:41.869Z,56.11
2017-05-22T07:58:42.507Z,56.14
2017-05-22T07:59:43.126Z,55.00
2017-05-22T08:00:43.762Z,56.16
2017-05-22T08:01:44.402Z,56.46
2017-05-22T08:02:45.037Z,55.42
2017-05-22T08:03:45.674Z,54.45
2017-05-22T08:04:46.317Z,53.87
2017-05-22T08:05:46.945Z,53.94
2017-05-22T08:06:47.579Z,54.45
2017-05-22T08:07:48.203Z,54.81
2017-05-22T08:08:48.845Z,54.91
2017-05-22T08:09:49.469Z,54.81
2017-05-22T08:10:50.112Z,53.49
2017-05-22T08:11:50.747Z,53.97
2017-05-22T08:12:51.374Z,53.75
2017-05-22T08:13:52.012Z,54.45
2017-05-22T08:14:52.652Z,53.77
2017-05-22T08:15:53.277Z,54.43
2017-05-22T08:16:53.926Z,53.85
2017-05-22T08:17:54.567Z,55.22
2017-05-22T08:18:55.197Z,54.74
2017-05-22T08:19:55.840Z,54.71
2017-05-22T08:20:56.459Z,55.00
2017-05-22T08:21:57.105Z,55.68
2017-05-22T08:22:57.743Z,55.42
2017-05-22T08:23:58.378Z,55.10
2017-05-22T08:24:59.018Z,55.20
2017-05-22T08:25:59.651Z,56.16
2017-05-22T08:27:00.286Z,57.53
2017-05-22T08:28:00.927Z,56.94
2017-05-22T08:29:01.544Z,55.88
2017-05-22T08:30:02.168Z,54.64
2017-05-22T08:31:02.805Z,55.10
2017-05-22T08:32:03.439Z,54.52
2017-05-22T08:33:04.061Z,55.62
2017-05-22T08:34:04.680Z,55.22
2017-05-22T08:35:05.309Z,55.00
2017-05-22T08:36:05.952Z,55.98
2017-05-22T08:37:06.589Z,56.07
2017-05-22T08:38:07.210Z,56.75
2017-05-22T08:39:07.840Z,56.77
2017-05-22T08:40:08.467Z,55.93
2017-05-22T08:41:09.087Z,55.18
2017-05-22T08:42:09.720Z,54.38
2017-05-22T08:43:10.351Z,54.55
2017-05-22T08:44:10.986Z,56.90
2017-05-22T08:45:11.624Z,54.77
2017-05-22T08:46:12.266Z,53.22
2017-05-22T08:47:12.957Z,53.92
2017-05-22T08:48:13.583Z,54.11
2017-05-22T08:49:14.215Z,54.70
2017-05-22T08:50:14.842Z,55.35
2017-05-22T08:51:15.465Z,54.74
2017-05-22T08:52:16.107Z,54.64
2017-05-22T08:53:16.747Z,55.04
2017-05-22T08:54:17.373Z,55.35
2017-05-22T08:55:18.010Z,55.81
2017-05-22T08:56:18.631Z,54.96
2017-05-22T08:57:19.258Z,54.67
2017-05-22T08:58:19.892Z,55.18
2017-05-22T08:59:20.506Z,55.96
2017-05-22T09:00:21.151Z,55.74
2017-05-22T09:01:21.790Z,55.35
2017-05-22T09:02:22.429Z,55.35
2017-05-22T09:03:23.047Z,55.38
2017-05-22T09:04:23.680Z,54.60
2017-05-22T09:05:24.316Z,53.83
2017-05-22T09:06:24.948Z,53.63
2017-05-22T09:07:25.569Z,55.11
2017-05-22T09:08:26.195Z,55.11
2017-05-22T09:09:26.830Z,54.07
2017-05-22T09:10:27.489Z,52.62
2017-05-22T09:11:28.122Z,53.78
2017-05-22T09:12:28.744Z,54.85
2017-05-22T09:13:29.402Z,53.91
2017-05-22T09:14:30.083Z,52.74
2017-05-22T09:15:30.739Z,53.45
2017-05-22T09:16:31.364Z,53.25
2017-05-22T09:17:32.006Z,51.70
2017-05-22T09:18:32.648Z,51.18
2017-05-22T09:19:33.338Z,52.42
2017-05-22T09:20:33.976Z,52.91
2017-05-22T09:21:34.612Z,53.39
2017-05-22T09:22:35.256Z,53.88
2017-05-22T09:23:35.881Z,53.69
2017-05-22T09:24:36.573Z,53.49
2017-05-22T09:25:37.191Z,54.07
2017-05-22T09:26:37.828Z,52.81
2017-05-22T09:27:38.468Z,53.20
2017-05-22T09:28:39.100Z,52.78
2017-05-22T09:29:39.743Z,54.05
2017-05-22T09:30:40.383Z,53.05
2017-05-22T09:31:41.026Z,53.75
2017-05-22T09:32:41.651Z,54.56
2017-05-22T09:33:42.276Z,54.34
2017-05-22T09:34:42.910Z,53.39
2017-05-22T09:35:43.532Z,53.20
2017-05-22T09:36:44.164Z,53.27
2017-05-22T09:37:44.781Z,53.47
2017-05-22T09:38:45.411Z,54.72
2017-05-22T09:39:46.044Z,54.94
2017-05-22T09:40:46.682Z,53.95
2017-05-22T09:41:47.310Z,53.83
2017-05-22T09:42:47.948Z,54.11
2017-05-22T09:43:48.568Z,54.90
2017-05-22T09:44:49.195Z,54.11
2017-05-22T09:45:49.834Z,53.53
2017-05-22T09:46:50.463Z,54.70
2017-05-22T09:47:51.084Z,55.02
2017-05-22T09:48:51.713Z,54.72
2017-05-22T09:49:52.348Z,54.92
2017-05-22T09:50:52.980Z,53.83
2017-05-22T09:51:53.605Z,53.56
2017-05-22T09:52:54.233Z,53.24
2017-05-22T09:53:54.867Z,53.02
2017-05-22T09:54:55.495Z,52.28
2017-05-22T09:55:56.115Z,52.66
2017-05-22T09:56:56.734Z,53.27
2017-05-22T09:57:57.364Z,53.30
2017-05-22T09:58:58.000Z,52.69
2017-05-22T09:59:58.640Z,52.95
2017-05-22T10:00:59.271Z,52.11
2017-05-22T10:01:59.903Z,52.28
2017-05-22T10:03:00.526Z,50.24
2017-05-22T10:04:01.153Z,50.62
2017-05-22T10:05:01.783Z,52.37
2017-05-22T10:06:02.411Z,52.76
2017-05-22T10:07:03.055Z,52.20
2017-05-22T10:08:03.736Z,53.47
2017-05-22T10:09:04.367Z,52.03
2017-05-22T10:10:04.991Z,52.30
2017-05-22T10:11:05.630Z,53.27
2017-05-22T10:12:06.269Z,53.24
2017-05-22T10:13:06.902Z,52.95
2017-05-22T10:14:07.538Z,52.86
2017-05-22T10:15:08.158Z,53.83
2017-05-22T10:16:08.788Z,54.70
2017-05-22T10:17:09.412Z,55.08
2017-05-22T10:18:10.032Z,54.50
2017-05-22T10:19:10.659Z,53.85
2017-05-22T10:20:11.279Z,53.39
2017-05-22T10:21:11.909Z,52.30
2017-05-22T10:22:12.546Z,52.69
2017-05-22T10:23:13.185Z,53.44
2017-05-22T10:24:13.812Z,52.28
2017-05-22T10:25:14.438Z,52.18
2017-05-22T10:26:15.085Z,53.15
2017-05-22T10:27:15.728Z,53.08
2017-05-22T10:28:16.424Z,52.11
2017-05-22T10:29:17.039Z,53.85
2017-05-22T10:30:17.678Z,53.37
2017-05-22T10:31:18.317Z,54.63
2017-05-22T10:32:18.935Z,52.59
2017-05-22T10:33:19.559Z,51.43
2017-05-22T10:34:20.194Z,51.91
2017-05-22T10:35:20.823Z,52.37
2017-05-22T10:36:21.459Z,53.92
2017-05-22T10:37:22.085Z,52.78
2017-05-22T10:38:22.725Z,52.20
2017-05-22T10:39:23.351Z,50.04
2017-05-22T10:40:23.996Z,50.14
2017-05-22T10:41:24.634Z,48.78
2017-05-22T10:42:25.318Z,50.16
2017-05-22T10:43:25.937Z,50.58
2017-05-22T10:44:26.558Z,50.09
2017-05-22T10:45:27.187Z,50.77
2017-05-22T10:46:27.819Z,50.02
2017-05-22T10:47:28.447Z,48.27
2017-05-22T10:48:29.070Z,48.97
2017-05-22T10:49:29.690Z,48.30
2017-05-22T10:50:30.323Z,48.00
2017-05-22T10:51:30.965Z,47.88
2017-05-22T10:52:31.599Z,49.27
2017-05-22T10:53:32.225Z,46.25
2017-05-22T10:54:32.865Z,46.18
2017-05-22T10:55:33.501Z,46.72
2017-05-22T10:56:34.147Z,46.81
2017-05-22T10:57:34.840Z,47.49
2017-05-22T10:58:35.481Z,46.64
2017-05-22T10:59:36.100Z,45.40
2017-05-22T11:00:36.740Z,46.59
2017-05-22T11:01:37.359Z,46.69
2017-05-22T11:02:37.984Z,45.54
2017-05-22T11:03:38.619Z,46.88
2017-05-22T11:04:39.236Z,47.05
2017-05-22T11:05:39.863Z,46.74
2017-05-22T11:06:40.486Z,48.49
2017-05-22T11:07:41.108Z,46.91
2017-05-22T11:08:41.778Z,46.62
2017-05-22T11:09:42.416Z,48.20
2017-05-22T11:10:43.059Z,48.13
2017-05-22T11:11:43.697Z,48.32
2017-05-22T11:12:44.334Z,47.81
2017-05-22T11:13:44.974Z,48.20
2017-05-22T11:14:45.620Z,47.83
2017-05-22T11:15:46.264Z,46.94
2017-05-22T11:16:46.882Z,48.05
2017-05-22T11:17:47.567Z,46.13
2017-05-22T11:18:48.191Z,45.45
2017-05-22T11:19:48.832Z,44.89
2017-05-22T11:20:49.676Z,45.45
2017-05-22T11:21:50.323Z,44.69
2017-05-22T11:22:50.969Z,44.79
2017-05-22T11:23:51.597Z,44.42
2017-05-22T11:24:52.235Z,44.44
2017-05-22T11:25:52.856Z,44.83
2017-05-22T11:26:53.484Z,43.59
2017-05-22T11:27:54.118Z,44.62
2017-05-22T11:28:54.761Z,44.69
2017-05-22T11:29:55.407Z,44.96
2017-05-22T11:30:56.023Z,44.45
2017-05-22T11:31:56.648Z,46.40
2017-05-22T11:32:57.290Z,46.23
2017-05-22T11:33:57.909Z,44.69
2017-05-22T11:34:58.536Z,44.79
2017-05-22T11:35:59.169Z,45.18
2017-05-22T11:36:59.799Z,45.47
2017-05-22T11:38:00.431Z,45.14
2017-05-22T11:39:01.066Z,45.91
2017-05-22T11:40:01.691Z,44.92
2017-05-22T11:41:02.313Z,45.28
2017-05-22T11:42:02.991Z,45.89
2017-05-22T11:43:03.640Z,45.54
2017-05-22T11:44:04.258Z,44.76
2017-05-22T11:45:04.889Z,44.86
2017-05-22T11:46:05.523Z,45.94
2017-05-22T11:47:06.154Z,45.84
2017-05-22T11:48:06.807Z,44.89
2017-05-22T11:49:07.433Z,44.59
2017-05-22T11:50:08.074Z,44.23
2017-05-22T11:51:08.920Z,45.12
2017-05-22T11:52:09.556Z,45.32
2017-05-22T11:53:10.183Z,45.44
2017-05-22T11:54:10.804Z,43.18
2017-05-22T11:55:11.422Z,43.04
2017-05-22T11:56:12.050Z,44.48
2017-05-22T11:57:12.673Z,45.84
2017-05-22T11:58:13.312Z,45.15
2017-05-22T11:59:13.946Z,44.30
2017-05-22T12:00:14.577Z,44.71
2017-05-22T12:01:15.233Z,44.71
2017-05-22T12:02:15.875Z,43.74
2017-05-22T12:03:16.540Z,43.15
2017-05-22T12:04:17.202Z,44.30
2017-05-22T12:05:17.881Z,45.86
2017-05-22T12:06:18.499Z,46.54
2017-05-22T12:07:19.121Z,45.86
2017-05-22T12:08:19.756Z,45.37
2017-05-22T12:09:20.388Z,45.47
2017-05-22T12:10:21.002Z,44.86
2017-05-22T12:11:21.629Z,44.67
2017-05-22T12:12:22.271Z,44.20
2017-05-22T12:13:22.907Z,43.52
2017-05-22T12:14:23.541Z,43.64
2017-05-22T12:15:24.184Z,43.62
2017-05-22T12:16:24.827Z,43.33
2017-05-22T12:17:25.470Z,43.18
2017-05-22T12:18:26.107Z,43.05
2017-05-22T12:19:26.733Z,43.60
2017-05-22T12:20:27.355Z,44.76
2017-05-22T12:21:27.988Z,45.06
2017-05-22T12:22:28.613Z,45.45
2017-05-22T12:23:29.240Z,45.81
2017-05-22T12:24:29.875Z,45.60
2017-05-22T12:25:30.505Z,46.69
2017-05-22T12:26:31.140Z,46.03
2017-05-22T12:27:31.772Z,45.20
2017-05-22T12:28:32.409Z,45.25
2017-05-22T12:29:33.118Z,44.76
2017-05-22T12:30:33.741Z,44.93
2017-05-22T12:31:34.382Z,43.95
2017-05-22T12:32:35.017Z,42.69
2017-05-22T12:33:35.651Z,44.23
2017-05-22T12:34:36.274Z,44.59
2017-05-22T12:35:36.926Z,45.28
2017-05-22T12:36:37.540Z,43.52
2017-05-22T12:37:38.181Z,44.71
2017-05-22T12:38:38.815Z,44.34
2017-05-22T12:39:39.441Z,43.18
2017-05-22T12:40:40.063Z,42.80
2017-05-22T12:41:40.697Z,42.40
2017-05-22T12:42:41.334Z,43.66
2017-05-22T12:43:41.962Z,43.68
2017-05-22T12:44:42.599Z,42.00
2017-05-22T12:45:43.235Z,40.47
2017-05-22T12:46:43.863Z,40.58
2017-05-22T12:47:44.490Z,40.89
2017-05-22T12:48:45.126Z,40.78
2017-05-22T12:49:45.761Z,40.78
2017-05-22T12:50:46.388Z,42.32
2017-05-22T12:51:47.036Z,43.49
2017-05-22T12:52:47.671Z,41.85
2017-05-22T12:53:48.315Z,43.32
2017-05-22T12:54:49.019Z,44.38
2017-05-22T12:55:49.647Z,43.22
2017-05-22T12:56:50.276Z,41.95
2017-05-22T12:57:50.918Z,41.36
2017-05-22T12:58:51.571Z,41.56
2017-05-22T12:59:52.222Z,41.27
2017-05-22T13:00:52.843Z,40.48